sensor_id;sensor_type;location;lat;lon;timestamp;pressure;altitude;pressure_sealevel;temperature;humidity
77299;BME280;66361;52.034;20.656;2023-12-20T00:00:58;99136.25;;;5.52;89.38
77299;BME280;66361;52.034;20.656;2023-12-20T00:04:55;99126.81;;;5.48;89.03
77299;BME280;66361;52.034;20.656;2023-12-20T00:08:39;99126.81;;;5.48;89.41
77299;BME280;66361;52.034;20.656;2023-12-20T00:12:23;99126.00;;;5.46;89.34
77299;BME280;66361;52.034;20.656;2023-12-20T00:16:09;99119.91;;;5.46;89.51
77299;BME280;66361;52.034;20.656;2023-12-20T00:19:53;99112.88;;;5.48;89.57
77299;BME280;66361;52.034;20.656;2023-12-20T00:23:37;99111.16;;;5.47;89.64
77299;BME280;66361;52.034;20.656;2023-12-20T00:27:22;99116.41;;;5.47;89.54
77299;BME280;66361;52.034;20.656;2023-12-20T00:31:06;99125.94;;;5.48;89.62
77299;BME280;66361;52.034;20.656;2023-12-20T00:34:52;99112.06;;;5.46;89.21
77299;BME280;66361;52.034;20.656;2023-12-20T00:38:36;99108.63;;;5.45;89.29
77299;BME280;66361;52.034;20.656;2023-12-20T00:42:20;99111.16;;;5.47;89.45
77299;BME280;66361;52.034;20.656;2023-12-20T00:46:06;99103.94;;;5.53;89.37
77299;BME280;66361;52.034;20.656;2023-12-20T00:49:51;99106.69;;;5.50;89.51
77299;BME280;66361;52.034;20.656;2023-12-20T00:53:39;99099.75;;;5.49;89.64
77299;BME280;66361;52.034;20.656;2023-12-20T00:57:23;99098.03;;;5.48;89.21
77299;BME280;66361;52.034;20.656;2023-12-20T01:01:07;99098.03;;;5.48;89.27
77299;BME280;66361;52.034;20.656;2023-12-20T01:04:52;99091.03;;;5.49;89.54
77299;BME280;66361;52.034;20.656;2023-12-20T01:08:38;99091.00;;;5.50;89.25
77299;BME280;66361;52.034;20.656;2023-12-20T01:12:25;99080.53;;;5.50;89.41
77299;BME280;66361;52.034;20.656;2023-12-20T01:16:10;99080.50;;;5.52;89.55
77299;BME280;66361;52.034;20.656;2023-12-20T01:19:55;99088.34;;;5.52;89.04
77299;BME280;66361;52.034;20.656;2023-12-20T01:23:41;99080.41;;;5.53;89.20
77299;BME280;66361;52.034;20.656;2023-12-20T01:27:25;99075.13;;;5.55;89.78
77299;BME280;66361;52.034;20.656;2023-12-20T01:31:09;99071.66;;;5.54;89.24
77299;BME280;66361;52.034;20.656;2023-12-20T01:34:54;99068.03;;;5.58;89.31
77299;BME280;66361;52.034;20.656;2023-12-20T01:38:45;99060.28;;;5.55;89.37
77299;BME280;66361;52.034;20.656;2023-12-20T01:42:29;99067.22;;;5.56;89.47
77299;BME280;66361;52.034;20.656;2023-12-20T01:46:14;99055.00;;;5.57;89.16
77299;BME280;66361;52.034;20.656;2023-12-20T01:49:59;99065.41;;;5.58;89.52
77299;BME280;66361;52.034;20.656;2023-12-20T01:53:47;99059.38;;;5.56;89.43
77299;BME280;66361;52.034;20.656;2023-12-20T01:57:32;99054.16;;;5.56;89.32
77299;BME280;66361;52.034;20.656;2023-12-20T02:01:17;99047.22;;;5.55;89.51
77299;BME280;66361;52.034;20.656;2023-12-20T02:05:01;99047.22;;;5.55;89.67
77299;BME280;66361;52.034;20.656;2023-12-20T02:08:48;99048.06;;;5.56;89.18
77299;BME280;66361;52.034;20.656;2023-12-20T02:12:44;99037.59;;;5.56;89.51
77299;BME280;66361;52.034;20.656;2023-12-20T02:16:30;99031.50;;;5.55;89.76
77299;BME280;66361;52.034;20.656;2023-12-20T02:20:15;99019.34;;;5.54;89.85
77299;BME280;66361;52.034;20.656;2023-12-20T02:24:06;99026.28;;;5.55;89.46
77299;BME280;66361;52.034;20.656;2023-12-20T02:27:50;99030.66;;;5.55;89.83
77299;BME280;66361;52.034;20.656;2023-12-20T02:31:34;99019.44;;;5.53;89.88
77299;BME280;66361;52.034;20.656;2023-12-20T02:35:18;99017.78;;;5.50;89.66
77299;BME280;66361;52.034;20.656;2023-12-20T02:39:04;99012.59;;;5.49;89.56
77299;BME280;66361;52.034;20.656;2023-12-20T02:42:48;99012.66;;;5.47;89.18
77299;BME280;66361;52.034;20.656;2023-12-20T02:46:33;99005.66;;;5.48;89.56
77299;BME280;66361;52.034;20.656;2023-12-20T02:50:17;98997.75;;;5.49;89.50
77299;BME280;66361;52.034;20.656;2023-12-20T02:54:01;98996.97;;;5.47;89.55
77299;BME280;66361;52.034;20.656;2023-12-20T02:57:47;99008.28;;;5.48;89.26
77299;BME280;66361;52.034;20.656;2023-12-20T03:01:32;99005.66;;;5.48;89.18
77299;BME280;66361;52.034;20.656;2023-12-20T03:05:16;98997.88;;;5.46;89.55
77299;BME280;66361;52.034;20.656;2023-12-20T03:09:01;98996.19;;;5.45;89.63
77299;BME280;66361;52.034;20.656;2023-12-20T03:12:46;99002.31;;;5.44;89.24
77299;BME280;66361;52.034;20.656;2023-12-20T03:16:30;99004.84;;;5.46;89.57
77299;BME280;66361;52.034;20.656;2023-12-20T03:20:18;99001.47;;;5.44;89.77
77299;BME280;66361;52.034;20.656;2023-12-20T03:24:03;98993.56;;;5.45;89.50
77299;BME280;66361;52.034;20.656;2023-12-20T03:27:48;98987.41;;;5.46;89.62
77299;BME280;66361;52.034;20.656;2023-12-20T03:31:32;98996.97;;;5.47;89.40
77299;BME280;66361;52.034;20.656;2023-12-20T03:35:16;98997.75;;;5.49;89.76
77299;BME280;66361;52.034;20.656;2023-12-20T03:39:00;98985.59;;;5.48;89.25
77299;BME280;66361;52.034;20.656;2023-12-20T03:42:45;98980.38;;;5.48;89.69
77299;BME280;66361;52.034;20.656;2023-12-20T03:46:31;98984.75;;;5.48;89.33
77299;BME280;66361;52.034;20.656;2023-12-20T03:50:15;98990.97;;;5.45;89.50
77299;BME280;66361;52.034;20.656;2023-12-20T03:53:59;98978.78;;;5.44;89.43
77299;BME280;66361;52.034;20.656;2023-12-20T03:57:43;98971.09;;;5.40;89.42
77299;BME280;66361;52.034;20.656;2023-12-20T04:01:28;98987.69;;;5.39;89.72
77299;BME280;66361;52.034;20.656;2023-12-20T04:05:13;98985.16;;;5.37;89.57
77299;BME280;66361;52.034;20.656;2023-12-20T04:08:58;98988.69;;;5.36;90.14
77299;BME280;66361;52.034;20.656;2023-12-20T04:12:42;98991.31;;;5.36;89.68
77299;BME280;66361;52.034;20.656;2023-12-20T04:16:26;98987.00;;;5.35;89.70
77299;BME280;66361;52.034;20.656;2023-12-20T04:20:10;98987.03;;;5.34;89.87
77299;BME280;66361;52.034;20.656;2023-12-20T04:23:56;98984.13;;;5.41;89.78
77299;BME280;66361;52.034;20.656;2023-12-20T04:27:40;98977.25;;;5.39;89.17
77299;BME280;66361;52.034;20.656;2023-12-20T04:31:25;98979.94;;;5.37;89.77
77299;BME280;66361;52.034;20.656;2023-12-20T04:35:09;98979.94;;;5.37;89.84
77299;BME280;66361;52.034;20.656;2023-12-20T04:38:53;98974.72;;;5.37;90.16
77299;BME280;66361;52.034;20.656;2023-12-20T04:42:39;98975.56;;;5.38;90.00
77299;BME280;66361;52.034;20.656;2023-12-20T04:46:23;98979.09;;;5.37;89.79
77299;BME280;66361;52.034;20.656;2023-12-20T04:50:08;98979.09;;;5.37;89.97
77299;BME280;66361;52.034;20.656;2023-12-20T04:53:52;98970.41;;;5.36;89.77
77299;BME280;66361;52.034;20.656;2023-12-20T04:57:36;98967.78;;;5.36;90.04
77299;BME280;66361;52.034;20.656;2023-12-20T05:01:22;98960.00;;;5.35;90.12
77299;BME280;66361;52.034;20.656;2023-12-20T05:05:06;98959.13;;;5.34;90.12
77299;BME280;66361;52.034;20.656;2023-12-20T05:08:51;98968.75;;;5.34;90.15
77299;BME280;66361;52.034;20.656;2023-12-20T05:12:35;98962.72;;;5.31;89.66
77299;BME280;66361;52.034;20.656;2023-12-20T05:16:19;98967.94;;;5.31;90.05
77299;BME280;66361;52.034;20.656;2023-12-20T05:20:06;98955.84;;;5.29;89.90
77299;BME280;66361;52.034;20.656;2023-12-20T05:23:51;98949.78;;;5.28;90.30
77299;BME280;66361;52.034;20.656;2023-12-20T05:27:35;98956.75;;;5.28;90.38
77299;BME280;66361;52.034;20.656;2023-12-20T05:31:19;98956.75;;;5.28;90.45
77299;BME280;66361;52.034;20.656;2023-12-20T05:35:05;98960.28;;;5.27;89.80
77299;BME280;66361;52.034;20.656;2023-12-20T05:38:50;98962.91;;;5.27;90.07
77299;BME280;66361;52.034;20.656;2023-12-20T05:42:34;98966.41;;;5.26;90.37
77299;BME280;66361;52.034;20.656;2023-12-20T05:46:18;98961.19;;;5.26;90.17
77299;BME280;66361;52.034;20.656;2023-12-20T05:50:03;98962.94;;;5.25;90.19
77299;BME280;66361;52.034;20.656;2023-12-20T05:53:49;98957.56;;;5.30;90.55
77299;BME280;66361;52.034;20.656;2023-12-20T05:57:33;98961.13;;;5.27;90.34
77299;BME280;66361;52.034;20.656;2023-12-20T06:01:17;98954.16;;;5.28;90.45
77299;BME280;66361;52.034;20.656;2023-12-20T06:05:02;98950.63;;;5.29;90.00
77299;BME280;66361;52.034;20.656;2023-12-20T06:08:46;98943.69;;;5.28;90.48
77299;BME280;66361;52.034;20.656;2023-12-20T06:12:31;98949.72;;;5.30;90.02
77299;BME280;66361;52.034;20.656;2023-12-20T06:16:15;98955.81;;;5.30;89.94
77299;BME280;66361;52.034;20.656;2023-12-20T06:19:59;98959.31;;;5.29;90.14
77299;BME280;66361;52.034;20.656;2023-12-20T06:23:43;98956.72;;;5.29;90.19
77299;BME280;66361;52.034;20.656;2023-12-20T06:27:27;98954.94;;;5.30;90.28
77299;BME280;66361;52.034;20.656;2023-12-20T06:31:13;98960.03;;;5.33;90.10
77299;BME280;66361;52.034;20.656;2023-12-20T06:34:57;98961.75;;;5.34;90.07
77299;BME280;66361;52.034;20.656;2023-12-20T06:38:41;98962.66;;;5.33;90.12
77299;BME280;66361;52.034;20.656;2023-12-20T06:42:25;98954.81;;;5.33;89.97
77299;BME280;66361;52.034;20.656;2023-12-20T06:46:14;98953.09;;;5.32;90.23
77299;BME280;66361;52.034;20.656;2023-12-20T06:49:58;98953.09;;;5.32;90.35
77299;BME280;66361;52.034;20.656;2023-12-20T06:53:43;98950.56;;;5.30;89.71
77299;BME280;66361;52.034;20.656;2023-12-20T06:57:27;98946.16;;;5.31;89.96
77299;BME280;66361;52.034;20.656;2023-12-20T07:01:11;98952.34;;;5.30;90.16
77299;BME280;66361;52.034;20.656;2023-12-20T07:04:57;98950.63;;;5.29;90.14
77299;BME280;66361;52.034;20.656;2023-12-20T07:08:41;98950.63;;;5.29;90.09
77299;BME280;66361;52.034;20.656;2023-12-20T07:12:25;98959.38;;;5.28;90.20
77299;BME280;66361;52.034;20.656;2023-12-20T07:16:11;98962.84;;;5.28;90.22
77299;BME280;66361;52.034;20.656;2023-12-20T07:19:57;98955.00;;;5.28;90.27
77299;BME280;66361;52.034;20.656;2023-12-20T07:23:42;98962.91;;;5.27;89.92
77299;BME280;66361;52.034;20.656;2023-12-20T07:27:26;98959.38;;;5.28;89.87
77299;BME280;66361;52.034;20.656;2023-12-20T07:31:10;98951.53;;;5.28;89.70
77299;BME280;66361;52.034;20.656;2023-12-20T07:34:55;98960.22;;;5.28;89.85
77299;BME280;66361;52.034;20.656;2023-12-20T07:38:43;98958.47;;;5.29;90.18
77299;BME280;66361;52.034;20.656;2023-12-20T07:42:27;98958.47;;;5.29;90.13
77299;BME280;66361;52.034;20.656;2023-12-20T07:46:11;98966.31;;;5.29;90.14
77299;BME280;66361;52.034;20.656;2023-12-20T07:49:55;98964.56;;;5.29;90.23
77299;BME280;66361;52.034;20.656;2023-12-20T07:53:42;98971.50;;;5.30;89.92
77299;BME280;66361;52.034;20.656;2023-12-20T07:57:28;98969.69;;;5.31;89.92
77299;BME280;66361;52.034;20.656;2023-12-20T08:01:12;98965.31;;;5.31;89.63
77299;BME280;66361;52.034;20.656;2023-12-20T08:04:56;98966.19;;;5.32;89.76
77299;BME280;66361;52.034;20.656;2023-12-20T08:08:41;98960.94;;;5.32;89.79
77299;BME280;66361;52.034;20.656;2023-12-20T08:12:26;98959.13;;;5.34;89.72
77299;BME280;66361;52.034;20.656;2023-12-20T08:16:11;98964.31;;;5.36;90.00
77299;BME280;66361;52.034;20.656;2023-12-20T08:19:58;98957.44;;;5.33;89.84
77299;BME280;66361;52.034;20.656;2023-12-20T08:23:44;98964.31;;;5.36;89.58
77299;BME280;66361;52.034;20.656;2023-12-20T08:27:28;98960.75;;;5.38;90.12
77299;BME280;66361;52.034;20.656;2023-12-20T08:31:14;98965.88;;;5.40;89.74
77299;BME280;66361;52.034;20.656;2023-12-20T08:34:59;98960.59;;;5.41;90.21
77299;BME280;66361;52.034;20.656;2023-12-20T08:38:44;98966.72;;;5.40;89.51
77299;BME280;66361;52.034;20.656;2023-12-20T08:42:28;98965.03;;;5.39;89.81
77299;BME280;66361;52.034;20.656;2023-12-20T08:46:14;98955.38;;;5.41;89.33
77299;BME280;66361;52.034;20.656;2023-12-20T08:49:59;98966.69;;;5.42;89.56
77299;BME280;66361;52.034;20.656;2023-12-20T08:53:45;98962.19;;;5.45;89.67
77299;BME280;66361;52.034;20.656;2023-12-20T08:57:30;98957.78;;;5.46;89.84
77299;BME280;66361;52.034;20.656;2023-12-20T09:01:14;98953.50;;;5.45;89.34
77299;BME280;66361;52.034;20.656;2023-12-20T09:04:58;98955.25;;;5.44;89.63
77299;BME280;66361;52.034;20.656;2023-12-20T09:08:42;98946.63;;;5.42;89.52
77299;BME280;66361;52.034;20.656;2023-12-20T09:12:28;98948.19;;;5.46;89.54
77299;BME280;66361;52.034;20.656;2023-12-20T09:16:12;98944.66;;;5.47;89.85
77299;BME280;66361;52.034;20.656;2023-12-20T09:19:58;98935.91;;;5.48;89.72
77299;BME280;66361;52.034;20.656;2023-12-20T09:23:43;98928.91;;;5.49;89.53
77299;BME280;66361;52.034;20.656;2023-12-20T09:27:28;98926.09;;;5.53;89.86
77299;BME280;66361;52.034;20.656;2023-12-20T09:31:12;98925.28;;;5.53;89.44
77299;BME280;66361;52.034;20.656;2023-12-20T09:34:56;98921.69;;;5.55;89.50
77299;BME280;66361;52.034;20.656;2023-12-20T09:38:41;98918.16;;;5.56;89.36
77299;BME280;66361;52.034;20.656;2023-12-20T09:42:39;98910.38;;;5.55;89.01
77299;BME280;66361;52.034;20.656;2023-12-20T09:46:24;98912.88;;;5.58;89.09
77299;BME280;66361;52.034;20.656;2023-12-20T09:50:13;98920.81;;;5.55;89.01
77299;BME280;66361;52.034;20.656;2023-12-20T09:53:57;98912.00;;;5.57;89.01
77299;BME280;66361;52.034;20.656;2023-12-20T09:57:43;98910.25;;;5.58;88.92
77299;BME280;66361;52.034;20.656;2023-12-20T10:01:28;98906.72;;;5.59;89.48
77299;BME280;66361;52.034;20.656;2023-12-20T10:05:16;98904.81;;;5.62;89.08
77299;BME280;66361;52.034;20.656;2023-12-20T10:09:01;98904.88;;;5.61;89.15
77299;BME280;66361;52.034;20.656;2023-12-20T10:13:01;98900.34;;;5.66;88.57
77299;BME280;66361;52.034;20.656;2023-12-20T10:16:46;98900.50;;;5.61;88.84
77299;BME280;66361;52.034;20.656;2023-12-20T10:20:32;98898.03;;;5.58;88.98
77299;BME280;66361;52.034;20.656;2023-12-20T10:24:17;98897.03;;;5.61;88.84
77299;BME280;66361;52.034;20.656;2023-12-20T10:28:13;98890.63;;;5.68;89.32
77299;BME280;66361;52.034;20.656;2023-12-20T10:31:57;98884.59;;;5.67;88.74
77299;BME280;66361;52.034;20.656;2023-12-20T10:35:42;98881.13;;;5.67;88.13
77299;BME280;66361;52.034;20.656;2023-12-20T10:39:29;98883.59;;;5.70;88.82
77299;BME280;66361;52.034;20.656;2023-12-20T10:43:16;98881.13;;;5.67;88.78
77299;BME280;66361;52.034;20.656;2023-12-20T10:47:00;98882.63;;;5.73;88.85
77299;BME280;66361;52.034;20.656;2023-12-20T10:50:45;98865.09;;;5.75;88.42
77299;BME280;66361;52.034;20.656;2023-12-20T10:54:29;98867.63;;;5.76;88.87
77299;BME280;66361;52.034;20.656;2023-12-20T10:58:15;98867.56;;;5.78;88.89
77299;BME280;66361;52.034;20.656;2023-12-20T11:02:02;98867.78;;;5.73;88.52
77299;BME280;66361;52.034;20.656;2023-12-20T11:05:52;98855.59;;;5.72;88.51
77299;BME280;66361;52.034;20.656;2023-12-20T11:09:42;98849.56;;;5.70;88.44
77299;BME280;66361;52.034;20.656;2023-12-20T11:13:32;98836.44;;;5.72;88.61
77299;BME280;66361;52.034;20.656;2023-12-20T11:17:18;98834.75;;;5.70;88.49
77299;BME280;66361;52.034;20.656;2023-12-20T11:21:04;98838.53;;;5.63;88.42
77299;BME280;66361;52.034;20.656;2023-12-20T11:24:50;98835.06;;;5.63;88.50
77299;BME280;66361;52.034;20.656;2023-12-20T11:28:35;98836.03;;;5.60;88.62
77299;BME280;66361;52.034;20.656;2023-12-20T11:32:28;98836.81;;;5.62;88.07
77299;BME280;66361;52.034;20.656;2023-12-20T11:36:13;98831.47;;;5.65;88.13
77299;BME280;66361;52.034;20.656;2023-12-20T11:40:00;98830.16;;;5.76;88.42
77299;BME280;66361;52.034;20.656;2023-12-20T11:43:47;98832.97;;;5.71;87.83
77299;BME280;66361;52.034;20.656;2023-12-20T11:47:32;98824.66;;;5.61;87.91
77299;BME280;66361;52.034;20.656;2023-12-20T11:51:17;98826.81;;;5.52;87.51
77299;BME280;66361;52.034;20.656;2023-12-20T11:55:01;98820.84;;;5.48;87.87
77299;BME280;66361;52.034;20.656;2023-12-20T11:58:47;98828.75;;;5.47;87.70
77299;BME280;66361;52.034;20.656;2023-12-20T12:02:33;98828.75;;;5.47;87.28
77299;BME280;66361;52.034;20.656;2023-12-20T12:06:17;98833.94;;;5.48;87.57
77299;BME280;66361;52.034;20.656;2023-12-20T12:10:01;98820.38;;;5.39;87.20
77299;BME280;66361;52.034;20.656;2023-12-20T12:13:49;98813.66;;;5.33;87.13
77299;BME280;66361;52.034;20.656;2023-12-20T12:17:33;98803.50;;;5.25;87.17
77299;BME280;66361;52.034;20.656;2023-12-20T12:21:19;98807.75;;;5.28;86.98
77299;BME280;66361;52.034;20.656;2023-12-20T12:25:11;98804.59;;;5.20;87.18
77299;BME280;66361;52.034;20.656;2023-12-20T12:28:57;98806.44;;;5.18;86.58
77299;BME280;66361;52.034;20.656;2023-12-20T12:32:40;98803.06;;;5.16;86.98
77299;BME280;66361;52.034;20.656;2023-12-20T12:36:25;98806.69;;;5.12;86.97
77299;BME280;66361;52.034;20.656;2023-12-20T12:40:11;98801.59;;;5.09;87.00
77299;BME280;66361;52.034;20.656;2023-12-20T12:43:57;98788.53;;;5.09;86.74
77299;BME280;66361;52.034;20.656;2023-12-20T12:47:52;98794.78;;;5.05;86.95
77299;BME280;66361;52.034;20.656;2023-12-20T12:51:37;98786.88;;;5.06;86.99
77299;BME280;66361;52.034;20.656;2023-12-20T12:55:22;98785.13;;;5.07;87.00
77299;BME280;66361;52.034;20.656;2023-12-20T12:59:08;98785.91;;;5.09;87.06
77299;BME280;66361;52.034;20.656;2023-12-20T13:02:52;98779.03;;;5.06;87.11
77299;BME280;66361;52.034;20.656;2023-12-20T13:06:36;98774.78;;;5.04;87.08
77299;BME280;66361;52.034;20.656;2023-12-20T13:10:21;98773.06;;;5.03;87.35
77299;BME280;66361;52.034;20.656;2023-12-20T13:14:07;98777.13;;;5.10;87.34
77299;BME280;66361;52.034;20.656;2023-12-20T13:17:55;98771.84;;;5.11;87.21
77299;BME280;66361;52.034;20.656;2023-12-20T13:21:40;98774.31;;;5.16;87.08
77299;BME280;66361;52.034;20.656;2023-12-20T13:25:24;98763.69;;;5.19;87.36
77299;BME280;66361;52.034;20.656;2023-12-20T13:29:12;98763.00;;;5.15;87.14
77299;BME280;66361;52.034;20.656;2023-12-20T13:32:57;98770.25;;;5.09;86.84
77299;BME280;66361;52.034;20.656;2023-12-20T13:36:43;98768.69;;;5.03;87.01
77299;BME280;66361;52.034;20.656;2023-12-20T13:40:28;98763.13;;;4.90;87.19
77299;BME280;66361;52.034;20.656;2023-12-20T13:44:14;98762.84;;;4.76;87.32
77299;BME280;66361;52.034;20.656;2023-12-20T13:47:58;98764.19;;;4.65;87.14
77299;BME280;66361;52.034;20.656;2023-12-20T13:51:42;98763.44;;;4.61;86.79
77299;BME280;66361;52.034;20.656;2023-12-20T13:55:26;98761.69;;;4.62;86.96
77299;BME280;66361;52.034;20.656;2023-12-20T13:59:11;98769.50;;;4.62;86.45
77299;BME280;66361;52.034;20.656;2023-12-20T14:02:56;98766.94;;;4.60;86.58
77299;BME280;66361;52.034;20.656;2023-12-20T14:06:41;98768.59;;;4.63;86.32
77299;BME280;66361;52.034;20.656;2023-12-20T14:10:25;98764.03;;;4.68;85.80
77299;BME280;66361;52.034;20.656;2023-12-20T14:14:10;98771.88;;;4.68;85.84
77299;BME280;66361;52.034;20.656;2023-12-20T14:17:55;98771.94;;;4.66;85.71
77299;BME280;66361;52.034;20.656;2023-12-20T14:21:39;98768.66;;;4.61;85.60
77299;BME280;66361;52.034;20.656;2023-12-20T14:25:23;98766.91;;;4.62;85.22
77299;BME280;66361;52.034;20.656;2023-12-20T14:29:11;98775.78;;;4.58;85.21
77299;BME280;66361;52.034;20.656;2023-12-20T14:32:56;98772.31;;;4.57;84.97
77299;BME280;66361;52.034;20.656;2023-12-20T14:36:41;98773.22;;;4.56;85.35
77299;BME280;66361;52.034;20.656;2023-12-20T14:40:25;98779.44;;;4.52;84.59
77299;BME280;66361;52.034;20.656;2023-12-20T14:44:10;98774.41;;;4.47;85.25
77299;BME280;66361;52.034;20.656;2023-12-20T14:47:54;98783.16;;;4.46;84.96
77299;BME280;66361;52.034;20.656;2023-12-20T14:51:39;98787.75;;;4.40;84.97
77299;BME280;66361;52.034;20.656;2023-12-20T14:55:27;98782.09;;;4.29;84.79
77299;BME280;66361;52.034;20.656;2023-12-20T14:59:13;98781.28;;;4.03;85.23
77299;BME280;66361;52.034;20.656;2023-12-20T15:02:57;98782.19;;;4.02;85.27
77299;BME280;66361;52.034;20.656;2023-12-20T15:06:43;98768.81;;;4.11;85.01
77299;BME280;66361;52.034;20.656;2023-12-20T15:10:28;98775.69;;;4.14;85.27
77299;BME280;66361;52.034;20.656;2023-12-20T15:14:13;98760.66;;;4.21;85.02
77299;BME280;66361;52.034;20.656;2023-12-20T15:18:02;98766.56;;;4.26;84.74
77299;BME280;66361;52.034;20.656;2023-12-20T15:21:47;98762.91;;;4.30;84.58
77299;BME280;66361;52.034;20.656;2023-12-20T15:25:32;98760.09;;;4.36;84.40
77299;BME280;66361;52.034;20.656;2023-12-20T15:29:19;98769.38;;;4.43;83.55
77299;BME280;66361;52.034;20.656;2023-12-20T15:33:03;98764.03;;;4.46;83.58
77299;BME280;66361;52.034;20.656;2023-12-20T15:36:51;98752.50;;;4.51;83.13
77299;BME280;66361;52.034;20.656;2023-12-20T15:40:35;98751.53;;;4.54;83.08
77299;BME280;66361;52.034;20.656;2023-12-20T15:44:19;98747.97;;;4.57;83.02
77299;BME280;66361;52.034;20.656;2023-12-20T15:48:03;98736.72;;;4.55;82.80
77299;BME280;66361;52.034;20.656;2023-12-20T15:51:47;98728.88;;;4.55;82.90
77299;BME280;66361;52.034;20.656;2023-12-20T15:55:33;98726.16;;;4.58;83.03
77299;BME280;66361;52.034;20.656;2023-12-20T15:59:18;98719.28;;;4.55;83.01
77299;BME280;66361;52.034;20.656;2023-12-20T16:03:02;98720.25;;;4.52;83.29
77299;BME280;66361;52.034;20.656;2023-12-20T16:06:47;98713.53;;;4.47;83.28
77299;BME280;66361;52.034;20.656;2023-12-20T16:10:33;98705.75;;;4.45;83.29
77299;BME280;66361;52.034;20.656;2023-12-20T16:14:18;98711.03;;;4.44;82.76
77299;BME280;66361;52.034;20.656;2023-12-20T16:18:03;98706.84;;;4.40;82.83
77299;BME280;66361;52.034;20.656;2023-12-20T16:21:51;98708.34;;;4.24;82.78
77299;BME280;66361;52.034;20.656;2023-12-20T16:25:37;98703.22;;;3.99;82.81
77299;BME280;66361;52.034;20.656;2023-12-20T16:29:22;98700.81;;;3.93;83.12
77299;BME280;66361;52.034;20.656;2023-12-20T16:33:06;98695.16;;;4.05;83.01
77299;BME280;66361;52.034;20.656;2023-12-20T16:36:53;98703.56;;;4.13;83.42
77299;BME280;66361;52.034;20.656;2023-12-20T16:40:40;98709.44;;;4.18;83.44
77299;BME280;66361;52.034;20.656;2023-12-20T16:44:25;98705.16;;;4.16;83.91
77299;BME280;66361;52.034;20.656;2023-12-20T16:48:10;98714.53;;;4.21;83.63
77299;BME280;66361;52.034;20.656;2023-12-20T16:51:54;98723.03;;;4.26;83.25
77299;BME280;66361;52.034;20.656;2023-12-20T16:55:39;98709.09;;;4.27;83.33
77299;BME280;66361;52.034;20.656;2023-12-20T16:59:27;98703.19;;;4.22;83.82
77299;BME280;66361;52.034;20.656;2023-12-20T17:03:11;98700.28;;;4.30;82.92
77299;BME280;66361;52.034;20.656;2023-12-20T17:06:55;98690.88;;;4.26;83.05
77299;BME280;66361;52.034;20.656;2023-12-20T17:10:41;98688.09;;;4.07;82.93
77299;BME280;66361;52.034;20.656;2023-12-20T17:14:26;98705.75;;;4.00;82.71
77299;BME280;66361;52.034;20.656;2023-12-20T17:18:10;98690.84;;;4.04;82.84
77299;BME280;66361;52.034;20.656;2023-12-20T17:21:54;98675.84;;;4.09;82.85
77299;BME280;66361;52.034;20.656;2023-12-20T17:25:38;98667.31;;;4.05;82.91
77299;BME280;66361;52.034;20.656;2023-12-20T17:29:24;98670.47;;;3.92;82.79
77299;BME280;66361;52.034;20.656;2023-12-20T17:33:09;98673.84;;;3.70;82.55
77299;BME280;66361;52.034;20.656;2023-12-20T17:36:53;98667.22;;;3.62;83.96
77299;BME280;66361;52.034;20.656;2023-12-20T17:40:37;98652.16;;;3.70;84.03
77299;BME280;66361;52.034;20.656;2023-12-20T17:44:25;98643.06;;;3.80;84.26
77299;BME280;66361;52.034;20.656;2023-12-20T17:48:09;98654.00;;;3.90;83.79
77299;BME280;66361;52.034;20.656;2023-12-20T17:51:53;98650.19;;;3.98;83.66
77299;BME280;66361;52.034;20.656;2023-12-20T17:55:38;98642.00;;;4.07;83.56
77299;BME280;66361;52.034;20.656;2023-12-20T17:59:22;98641.91;;;4.10;83.49
77299;BME280;66361;52.034;20.656;2023-12-20T18:03:08;98629.66;;;4.12;83.46
77299;BME280;66361;52.034;20.656;2023-12-20T18:06:53;98627.44;;;4.24;82.84
77299;BME280;66361;52.034;20.656;2023-12-20T18:10:37;98637.78;;;4.27;83.38
77299;BME280;66361;52.034;20.656;2023-12-20T18:14:22;98631.72;;;4.26;83.18
77299;BME280;66361;52.034;20.656;2023-12-20T18:18:08;98619.81;;;4.19;83.88
77299;BME280;66361;52.034;20.656;2023-12-20T18:21:54;98622.44;;;4.19;83.85
77299;BME280;66361;52.034;20.656;2023-12-20T18:25:41;98627.66;;;4.19;83.24
77299;BME280;66361;52.034;20.656;2023-12-20T18:29:33;98609.84;;;4.07;83.75
77299;BME280;66361;52.034;20.656;2023-12-20T18:33:19;98623.38;;;4.17;83.35
77299;BME280;66361;52.034;20.656;2023-12-20T18:37:03;98616.91;;;4.27;82.99
77299;BME280;66361;52.034;20.656;2023-12-20T18:40:49;98626.34;;;4.29;83.21
77299;BME280;66361;52.034;20.656;2023-12-20T18:44:33;98611.75;;;4.25;83.85
77299;BME280;66361;52.034;20.656;2023-12-20T18:48:18;98610.94;;;4.23;84.76
77299;BME280;66361;52.034;20.656;2023-12-20T18:52:04;98603.41;;;4.16;84.90
77299;BME280;66361;52.034;20.656;2023-12-20T18:55:49;98597.53;;;4.10;85.10
77299;BME280;66361;52.034;20.656;2023-12-20T18:59:33;98587.16;;;4.09;85.82
77299;BME280;66361;52.034;20.656;2023-12-20T19:03:19;98588.56;;;4.18;85.50
77299;BME280;66361;52.034;20.656;2023-12-20T19:07:03;98583.44;;;4.14;85.60
77299;BME280;66361;52.034;20.656;2023-12-20T19:10:47;98582.63;;;4.14;85.61
77299;BME280;66361;52.034;20.656;2023-12-20T19:14:31;98574.47;;;4.22;85.24
77299;BME280;66361;52.034;20.656;2023-12-20T19:18:16;98586.59;;;4.23;85.63
77299;BME280;66361;52.034;20.656;2023-12-20T19:22:02;98640.50;;;4.24;85.66
77299;BME280;66361;52.034;20.656;2023-12-20T19:25:46;98694.16;;;4.07;86.04
77299;BME280;66361;52.034;20.656;2023-12-20T19:29:30;98700.63;;;3.51;85.38
77299;BME280;66361;52.034;20.656;2023-12-20T19:33:15;98692.91;;;3.24;85.31
77299;BME280;66361;52.034;20.656;2023-12-20T19:36:59;98685.88;;;3.02;85.67
77299;BME280;66361;52.034;20.656;2023-12-20T19:40:45;98679.31;;;2.90;85.98
77299;BME280;66361;52.034;20.656;2023-12-20T19:44:31;98664.75;;;2.84;86.70
77299;BME280;66361;52.034;20.656;2023-12-20T19:48:15;98674.25;;;2.85;86.90
77299;BME280;66361;52.034;20.656;2023-12-20T19:52:00;98682.06;;;2.85;86.29